sensor_id;sensor_type;location;lat;lon;timestamp;pressure;altitude;pressure_sealevel;temperature;humidity
38630;BME280;24384;51.988;4.644;2023-11-18T00:02:15;102298.06;;;4.55;100.00
38630;BME280;24384;51.988;4.644;2023-11-18T00:04:40;102282.31;;;4.50;100.00
38630;BME280;24384;51.988;4.644;2023-11-18T00:07:05;102280.50;;;4.47;100.00
38630;BME280;24384;51.988;4.644;2023-11-18T00:09:32;102288.38;;;4.49;100.00
38630;BME280;24384;51.988;4.644;2023-11-18T00:11:57;102289.25;;;4.48;100.00
38630;BME280;24384;51.988;4.644;2023-11-18T00:14:22;102277.06;;;4.48;100.00
38630;BME280;24384;51.988;4.644;2023-11-18T00:16:47;102282.56;;;4.69;100.00
38630;BME280;24384;51.988;4.644;2023-11-18T00:19:13;102279.19;;;4.74;100.00
38630;BME280;24384;51.988;4.644;2023-11-18T00:21:38;102269.28;;;4.53;100.00
38630;BME280;24384;51.988;4.644;2023-11-18T00:24:04;102279.66;;;4.47;100.00
38630;BME280;24384;51.988;4.644;2023-11-18T00:26:30;102273.56;;;4.46;100.00
38630;BME280;24384;51.988;4.644;2023-11-18T00:28:55;102280.25;;;4.30;100.00
38630;BME280;24384;51.988;4.644;2023-11-18T00:31:20;102282.06;;;4.35;100.00
38630;BME280;24384;51.988;4.644;2023-11-18T00:33:46;102279.34;;;4.28;100.00
38630;BME280;24384;51.988;4.644;2023-11-18T00:36:11;102280.16;;;4.24;100.00
38630;BME280;24384;51.988;4.644;2023-11-18T00:38:36;102292.31;;;4.22;100.00
38630;BME280;24384;51.988;4.644;2023-11-18T00:41:02;102293.16;;;4.21;100.00
38630;BME280;24384;51.988;4.644;2023-11-18T00:43:27;102287.03;;;4.18;100.00
38630;BME280;24384;51.988;4.644;2023-11-18T00:45:52;102286.06;;;4.12;100.00
38630;BME280;24384;51.988;4.644;2023-11-18T00:48:18;102295.66;;;4.15;100.00
38630;BME280;24384;51.988;4.644;2023-11-18T00:50:43;102295.75;;;4.20;100.00
38630;BME280;24384;51.988;4.644;2023-11-18T00:53:08;102304.56;;;4.25;100.00
38630;BME280;24384;51.988;4.644;2023-11-18T00:55:36;102295.84;;;4.26;100.00
38630;BME280;24384;51.988;4.644;2023-11-18T00:58:02;102301.06;;;4.26;100.00
38630;BME280;24384;51.988;4.644;2023-11-18T01:00:27;102294.13;;;4.26;100.00
38630;BME280;24384;51.988;4.644;2023-11-18T01:02:53;102290.69;;;4.30;100.00
38630;BME280;24384;51.988;4.644;2023-11-18T01:05:20;102296.94;;;4.39;100.00
38630;BME280;24384;51.988;4.644;2023-11-18T01:07:46;102299.66;;;4.45;100.00
38630;BME280;24384;51.988;4.644;2023-11-18T01:10:12;102305.84;;;4.52;100.00
38630;BME280;24384;51.988;4.644;2023-11-18T01:12:39;102299.69;;;4.46;100.00
38630;BME280;24384;51.988;4.644;2023-11-18T01:15:04;102285.06;;;4.61;100.00
38630;BME280;24384;51.988;4.644;2023-11-18T01:17:30;102294.94;;;4.79;100.00
38630;BME280;24384;51.988;4.644;2023-11-18T01:19:56;102294.78;;;4.68;100.00
38630;BME280;24384;51.988;4.644;2023-11-18T01:22:22;102291.34;;;4.74;100.00
38630;BME280;24384;51.988;4.644;2023-11-18T01:24:47;102290.44;;;4.70;100.00
38630;BME280;24384;51.988;4.644;2023-11-18T01:27:13;102294.88;;;4.76;100.00
38630;BME280;24384;51.988;4.644;2023-11-18T01:29:38;102293.00;;;4.67;100.00
38630;BME280;24384;51.988;4.644;2023-11-18T01:32:05;102296.41;;;4.63;100.00
38630;BME280;24384;51.988;4.644;2023-11-18T01:34:35;102302.63;;;4.68;100.00
38630;BME280;24384;51.988;4.644;2023-11-18T01:37:01;102310.50;;;4.71;100.00
38630;BME280;24384;51.988;4.644;2023-11-18T01:39:28;102314.91;;;4.75;100.00
38630;BME280;24384;51.988;4.644;2023-11-18T01:41:53;102314.28;;;4.92;100.00
38630;BME280;24384;51.988;4.644;2023-11-18T01:44:20;102308.94;;;4.84;100.00
38630;BME280;24384;51.988;4.644;2023-11-18T01:46:45;102305.56;;;4.91;100.00
38630;BME280;24384;51.988;4.644;2023-11-18T01:49:14;102316.06;;;4.94;100.00
38630;BME280;24384;51.988;4.644;2023-11-18T01:51:43;102312.53;;;4.92;100.00
38630;BME280;24384;51.988;4.644;2023-11-18T01:54:10;102314.16;;;4.84;100.00
38630;BME280;24384;51.988;4.644;2023-11-18T01:56:41;102314.00;;;4.73;100.00
38630;BME280;24384;51.988;4.644;2023-11-18T01:59:07;102315.69;;;4.68;100.00
38630;BME280;24384;51.988;4.644;2023-11-18T02:01:35;102311.53;;;4.82;100.00
38630;BME280;24384;51.988;4.644;2023-11-18T02:04:01;102313.41;;;4.91;100.00
38630;BME280;24384;51.988;4.644;2023-11-18T02:06:28;102308.81;;;4.75;100.00
38630;BME280;24384;51.988;4.644;2023-11-18T02:08:54;102304.59;;;4.86;100.00
38630;BME280;24384;51.988;4.644;2023-11-18T02:11:28;102308.25;;;4.96;100.00
38630;BME280;24384;51.988;4.644;2023-11-18T02:13:58;102310.75;;;4.88;100.00
38630;BME280;24384;51.988;4.644;2023-11-18T02:16:28;102311.50;;;4.81;100.00
38630;BME280;24384;51.988;4.644;2023-11-18T02:18:54;102308.81;;;4.76;100.00
38630;BME280;24384;51.988;4.644;2023-11-18T02:21:20;102302.81;;;4.82;100.00
38630;BME280;24384;51.988;4.644;2023-11-18T02:23:48;102305.56;;;4.91;100.00
38630;BME280;24384;51.988;4.644;2023-11-18T02:26:23;102298.44;;;4.81;100.00
38630;BME280;24384;51.988;4.644;2023-11-18T02:28:48;102290.03;;;5.02;100.00
38630;BME280;24384;51.988;4.644;2023-11-18T02:31:17;102279.56;;;5.04;100.00
38630;BME280;24384;51.988;4.644;2023-11-18T02:34:00;102282.88;;;4.90;100.00
38630;BME280;24384;51.988;4.644;2023-11-18T02:36:36;102276.81;;;4.91;100.00
38630;BME280;24384;51.988;4.644;2023-11-18T02:39:06;102286.22;;;4.80;100.00
38630;BME280;24384;51.988;4.644;2023-11-18T02:41:35;102279.22;;;4.76;100.00
38630;BME280;24384;51.988;4.644;2023-11-18T02:44:03;102269.53;;;4.70;100.00
38630;BME280;24384;51.988;4.644;2023-11-18T02:46:34;102271.25;;;4.68;100.00
38630;BME280;24384;51.988;4.644;2023-11-18T02:48:59;102275.66;;;4.72;100.00
38630;BME280;24384;51.988;4.644;2023-11-18T02:51:24;102271.22;;;4.66;100.00
38630;BME280;24384;51.988;4.644;2023-11-18T02:53:51;102273.06;;;4.74;100.00
38630;BME280;24384;51.988;4.644;2023-11-18T02:56:16;102267.81;;;4.72;100.00
38630;BME280;24384;51.988;4.644;2023-11-18T02:58:43;102263.41;;;4.66;100.00
38630;BME280;24384;51.988;4.644;2023-11-18T03:01:09;102254.63;;;4.64;100.00
38630;BME280;24384;51.988;4.644;2023-11-18T03:03:34;102266.84;;;4.65;100.00
38630;BME280;24384;51.988;4.644;2023-11-18T03:05:59;102261.66;;;4.69;100.00
38630;BME280;24384;51.988;4.644;2023-11-18T03:08:25;102264.22;;;4.64;100.00
38630;BME280;24384;51.988;4.644;2023-11-18T03:10:53;102254.72;;;4.71;100.00
38630;BME280;24384;51.988;4.644;2023-11-18T03:13:19;102262.53;;;4.69;100.00
38630;BME280;24384;51.988;4.644;2023-11-18T03:15:44;102266.16;;;4.77;100.00
38630;BME280;24384;51.988;4.644;2023-11-18T03:18:10;102249.72;;;4.88;100.00
38630;BME280;24384;51.988;4.644;2023-11-18T03:20:35;102256.78;;;4.93;100.00
38630;BME280;24384;51.988;4.644;2023-11-18T03:23:00;102247.19;;;4.95;100.00
38630;BME280;24384;51.988;4.644;2023-11-18T03:25:26;102239.41;;;4.98;100.00
38630;BME280;24384;51.988;4.644;2023-11-18T03:27:52;102227.31;;;5.07;100.00
38630;BME280;24384;51.988;4.644;2023-11-18T03:30:19;102223.81;;;5.06;100.00
38630;BME280;24384;51.988;4.644;2023-11-18T03:32:45;102201.06;;;4.97;100.00
38630;BME280;24384;51.988;4.644;2023-11-18T03:35:10;102198.41;;;4.96;100.00
38630;BME280;24384;51.988;4.644;2023-11-18T03:37:37;102202.72;;;4.92;100.00
38630;BME280;24384;51.988;4.644;2023-11-18T03:40:05;102202.66;;;4.88;100.00
38630;BME280;24384;51.988;4.644;2023-11-18T03:42:31;102192.06;;;4.77;100.00
38630;BME280;24384;51.988;4.644;2023-11-18T03:44:56;102187.72;;;4.76;100.00
38630;BME280;24384;51.988;4.644;2023-11-18T03:47:23;102189.44;;;4.75;100.00
38630;BME280;24384;51.988;4.644;2023-11-18T03:49:50;102179.88;;;4.76;100.00
38630;BME280;24384;51.988;4.644;2023-11-18T03:52:16;102194.66;;;4.74;100.00
38630;BME280;24384;51.988;4.644;2023-11-18T03:54:42;102188.56;;;4.73;100.00
38630;BME280;24384;51.988;4.644;2023-11-18T03:57:07;102185.94;;;4.73;100.00
38630;BME280;24384;51.988;4.644;2023-11-18T03:59:32;102182.47;;;4.74;100.00
38630;BME280;24384;51.988;4.644;2023-11-18T04:01:58;102182.50;;;4.76;100.00
38630;BME280;24384;51.988;4.644;2023-11-18T04:04:24;102174.63;;;4.73;100.00
38630;BME280;24384;51.988;4.644;2023-11-18T04:06:50;102177.22;;;4.73;100.00
38630;BME280;24384;51.988;4.644;2023-11-18T04:09:15;102173.78;;;4.77;100.00
38630;BME280;24384;51.988;4.644;2023-11-18T04:11:41;102157.25;;;4.78;100.00
38630;BME280;24384;51.988;4.644;2023-11-18T04:14:09;102158.09;;;4.78;100.00
38630;BME280;24384;51.988;4.644;2023-11-18T04:16:35;102145.88;;;4.74;100.00
38630;BME280;24384;51.988;4.644;2023-11-18T04:19:03;102143.28;;;4.74;100.00
38630;BME280;24384;51.988;4.644;2023-11-18T04:21:28;102136.28;;;4.75;100.00
38630;BME280;24384;51.988;4.644;2023-11-18T04:23:53;102139.78;;;4.75;100.00
38630;BME280;24384;51.988;4.644;2023-11-18T04:26:20;102136.28;;;4.75;100.00
38630;BME280;24384;51.988;4.644;2023-11-18T04:28:45;102138.06;;;4.77;100.00
38630;BME280;24384;51.988;4.644;2023-11-18T04:31:10;102135.44;;;4.76;100.00
38630;BME280;24384;51.988;4.644;2023-11-18T04:33:37;102132.84;;;4.77;100.00
38630;BME280;24384;51.988;4.644;2023-11-18T04:36:02;102134.63;;;4.81;100.00
38630;BME280;24384;51.988;4.644;2023-11-18T04:38:30;102137.22;;;4.80;100.00
38630;BME280;24384;51.988;4.644;2023-11-18T04:40:57;102131.16;;;4.84;100.00
38630;BME280;24384;51.988;4.644;2023-11-18T04:43:22;102131.13;;;4.81;100.00
38630;BME280;24384;51.988;4.644;2023-11-18T04:45:49;102124.16;;;4.80;100.00
38630;BME280;24384;51.988;4.644;2023-11-18T04:48:14;102129.41;;;4.83;100.00
38630;BME280;24384;51.988;4.644;2023-11-18T04:50:43;102114.59;;;4.82;100.00
38630;BME280;24384;51.988;4.644;2023-11-18T04:53:09;102112.03;;;4.85;100.00
38630;BME280;24384;51.988;4.644;2023-11-18T04:55:36;102113.75;;;4.86;100.00
38630;BME280;24384;51.988;4.644;2023-11-18T04:58:01;102099.00;;;4.88;100.00
38630;BME280;24384;51.988;4.644;2023-11-18T05:00:27;102097.22;;;4.87;100.00
38630;BME280;24384;51.988;4.644;2023-11-18T05:02:54;102092.94;;;4.95;100.00
38630;BME280;24384;51.988;4.644;2023-11-18T05:05:20;102100.72;;;4.91;100.00
38630;BME280;24384;51.988;4.644;2023-11-18T05:07:48;102093.78;;;4.91;100.00
38630;BME280;24384;51.988;4.644;2023-11-18T05:10:14;102085.94;;;4.91;100.00
38630;BME280;24384;51.988;4.644;2023-11-18T05:12:39;102078.97;;;4.92;100.00
38630;BME280;24384;51.988;4.644;2023-11-18T05:15:09;102081.59;;;4.92;100.00
38630;BME280;24384;51.988;4.644;2023-11-18T05:17:35;102079.00;;;4.95;100.00
38630;BME280;24384;51.988;4.644;2023-11-18T05:20:03;102071.97;;;4.91;100.00
38630;BME280;24384;51.988;4.644;2023-11-18T05:22:30;102081.59;;;4.92;100.00
38630;BME280;24384;51.988;4.644;2023-11-18T05:24:56;102078.97;;;4.92;100.00
38630;BME280;24384;51.988;4.644;2023-11-18T05:27:21;102083.38;;;4.94;100.00
38630;BME280;24384;51.988;4.644;2023-11-18T05:29:47;102068.50;;;4.92;100.00
38630;BME280;24384;51.988;4.644;2023-11-18T05:32:22;102063.31;;;4.93;100.00
38630;BME280;24384;51.988;4.644;2023-11-18T05:34:51;102060.69;;;4.93;100.00
38630;BME280;24384;51.988;4.644;2023-11-18T05:37:21;102063.31;;;4.95;100.00
38630;BME280;24384;51.988;4.644;2023-11-18T05:39:47;102054.63;;;4.97;100.00
38630;BME280;24384;51.988;4.644;2023-11-18T05:42:14;102048.50;;;4.95;100.00
38630;BME280;24384;51.988;4.644;2023-11-18T05:44:40;102052.88;;;4.96;100.00
38630;BME280;24384;51.988;4.644;2023-11-18T05:47:08;102050.25;;;4.95;100.00
38630;BME280;24384;51.988;4.644;2023-11-18T05:49:36;102051.97;;;4.93;100.00
38630;BME280;24384;51.988;4.644;2023-11-18T05:52:01;102054.66;;;4.99;100.00
38630;BME280;24384;51.988;4.644;2023-11-18T05:54:27;102029.31;;;4.95;100.00
38630;BME280;24384;51.988;4.644;2023-11-18T05:56:52;102028.50;;;4.97;100.00
38630;BME280;24384;51.988;4.644;2023-11-18T05:59:18;102034.56;;;4.96;100.00
38630;BME280;24384;51.988;4.644;2023-11-18T06:01:44;102048.53;;;5.00;100.00
38630;BME280;24384;51.988;4.644;2023-11-18T06:04:09;102041.63;;;5.05;100.00
38630;BME280;24384;51.988;4.644;2023-11-18T06:06:35;102030.25;;;5.01;100.00
38630;BME280;24384;51.988;4.644;2023-11-18T06:09:02;102043.31;;;5.01;100.00
38630;BME280;24384;51.988;4.644;2023-11-18T06:11:33;102032.88;;;5.03;100.00
38630;BME280;24384;51.988;4.644;2023-11-18T06:14:01;102019.81;;;5.05;100.00
38630;BME280;24384;51.988;4.644;2023-11-18T06:16:27;102009.34;;;5.05;100.00
38630;BME280;24384;51.988;4.644;2023-11-18T06:18:57;102002.41;;;5.07;100.00
38630;BME280;24384;51.988;4.644;2023-11-18T06:21:25;102011.13;;;5.06;100.00
38630;BME280;24384;51.988;4.644;2023-11-18T06:23:53;102012.00;;;5.06;100.00
38630;BME280;24384;51.988;4.644;2023-11-18T06:26:20;102009.38;;;5.08;100.00
38630;BME280;24384;51.988;4.644;2023-11-18T06:28:46;102015.56;;;5.14;100.00
38630;BME280;24384;51.988;4.644;2023-11-18T06:31:12;102019.03;;;5.13;100.00
38630;BME280;24384;51.988;4.644;2023-11-18T06:33:40;102009.47;;;5.17;100.00
38630;BME280;24384;51.988;4.644;2023-11-18T06:38:39;102010.34;;;5.14;100.00
38630;BME280;24384;51.988;4.644;2023-11-18T06:41:12;101999.84;;;5.13;100.00
38630;BME280;24384;51.988;4.644;2023-11-18T06:43:43;101997.28;;;5.19;100.00
38630;BME280;24384;51.988;4.644;2023-11-18T06:46:29;102009.47;;;5.17;100.00
38630;BME280;24384;51.988;4.644;2023-11-18T06:48:56;102001.63;;;5.17;100.00
38630;BME280;24384;51.988;4.644;2023-11-18T06:51:29;102005.13;;;5.19;100.00
38630;BME280;24384;51.988;4.644;2023-11-18T06:53:55;102010.34;;;5.17;100.00
38630;BME280;24384;51.988;4.644;2023-11-18T06:56:21;101999.88;;;5.14;100.00
38630;BME280;24384;51.988;4.644;2023-11-18T06:58:46;102008.56;;;5.13;100.00
38630;BME280;24384;51.988;4.644;2023-11-18T07:01:13;102006.00;;;5.18;100.00
38630;BME280;24384;51.988;4.644;2023-11-18T07:03:40;102000.78;;;5.19;100.00
38630;BME280;24384;51.988;4.644;2023-11-18T07:06:06;102003.41;;;5.23;100.00
38630;BME280;24384;51.988;4.644;2023-11-18T07:08:31;102010.34;;;5.17;100.00
38630;BME280;24384;51.988;4.644;2023-11-18T07:10:58;102005.13;;;5.19;100.00
38630;BME280;24384;51.988;4.644;2023-11-18T07:13:24;102007.78;;;5.28;100.00
38630;BME280;24384;51.988;4.644;2023-11-18T07:15:50;102010.41;;;5.25;100.00
38630;BME280;24384;51.988;4.644;2023-11-18T07:18:15;102019.13;;;5.24;100.00
38630;BME280;24384;51.988;4.644;2023-11-18T07:20:41;102013.91;;;5.27;100.00
38630;BME280;24384;51.988;4.644;2023-11-18T07:23:07;102015.63;;;5.24;100.00
38630;BME280;24384;51.988;4.644;2023-11-18T07:25:35;102018.25;;;5.22;100.00
38630;BME280;24384;51.988;4.644;2023-11-18T07:28:00;102027.00;;;5.27;100.00
38630;BME280;24384;51.988;4.644;2023-11-18T07:30:25;102025.22;;;5.26;100.00
38630;BME280;24384;51.988;4.644;2023-11-18T07:32:52;102020.03;;;5.32;100.00
38630;BME280;24384;51.988;4.644;2023-11-18T07:35:19;102025.28;;;5.32;100.00
38630;BME280;24384;51.988;4.644;2023-11-18T07:37:44;102020.91;;;5.33;100.00
38630;BME280;24384;51.988;4.644;2023-11-18T07:40:10;102020.06;;;5.34;100.00
38630;BME280;24384;51.988;4.644;2023-11-18T07:42:37;102007.84;;;5.34;100.00
38630;BME280;24384;51.988;4.644;2023-11-18T07:45:03;102000.00;;;5.34;100.00
38630;BME280;24384;51.988;4.644;2023-11-18T07:47:30;102000.91;;;5.36;100.00
38630;BME280;24384;51.988;4.644;2023-11-18T07:49:58;101993.03;;;5.35;100.00
38630;BME280;24384;51.988;4.644;2023-11-18T07:52:24;102004.41;;;5.42;100.00
38630;BME280;24384;51.988;4.644;2023-11-18T07:54:49;101988.72;;;5.42;100.00
38630;BME280;24384;51.988;4.644;2023-11-18T07:57:15;101988.72;;;5.42;100.00
38630;BME280;24384;51.988;4.644;2023-11-18T07:59:40;101983.50;;;5.45;100.00
38630;BME280;24384;51.988;4.644;2023-11-18T08:02:05;101979.13;;;5.45;100.00
38630;BME280;24384;51.988;4.644;2023-11-18T08:04:34;101987.03;;;5.53;100.00
38630;BME280;24384;51.988;4.644;2023-11-18T08:07:00;101983.53;;;5.52;100.00
38630;BME280;24384;51.988;4.644;2023-11-18T08:09:25;101989.69;;;5.57;100.00
38630;BME280;24384;51.988;4.644;2023-11-18T08:11:51;101978.34;;;5.60;100.00
38630;BME280;24384;51.988;4.644;2023-11-18T08:14:16;101986.22;;;5.60;100.00
38630;BME280;24384;51.988;4.644;2023-11-18T08:16:42;101990.56;;;5.55;100.00
38630;BME280;24384;51.988;4.644;2023-11-18T08:19:07;101974.88;;;5.58;100.00
38630;BME280;24384;51.988;4.644;2023-11-18T08:21:34;101980.09;;;5.55;100.00
38630;BME280;24384;51.988;4.644;2023-11-18T08:23:59;101966.09;;;5.53;100.00
38630;BME280;24384;51.988;4.644;2023-11-18T08:26:25;101966.97;;;5.52;100.00
38630;BME280;24384;51.988;4.644;2023-11-18T08:28:51;101976.56;;;5.53;100.00
38630;BME280;24384;51.988;4.644;2023-11-18T08:31:17;101971.38;;;5.62;100.00
38630;BME280;24384;51.988;4.644;2023-11-18T08:33:42;101962.69;;;5.66;100.00
38630;BME280;24384;51.988;4.644;2023-11-18T08:36:08;101950.44;;;5.64;100.00
38630;BME280;24384;51.988;4.644;2023-11-18T08:38:34;101948.69;;;5.56;100.00
38630;BME280;24384;51.988;4.644;2023-11-18T08:41:00;101947.78;;;5.53;100.00
38630;BME280;24384;51.988;4.644;2023-11-18T08:43:25;101948.69;;;5.55;100.00
38630;BME280;24384;51.988;4.644;2023-11-18T08:45:53;101933.84;;;5.54;100.00
38630;BME280;24384;51.988;4.644;2023-11-18T08:48:19;101920.75;;;5.55;100.00
38630;BME280;24384;51.988;4.644;2023-11-18T08:50:45;101917.31;;;5.61;100.00
38630;BME280;24384;51.988;4.644;2023-11-18T08:53:10;101910.28;;;5.54;100.00
38630;BME280;24384;51.988;4.644;2023-11-18T08:55:37;101905.06;;;5.57;100.00
38630;BME280;24384;51.988;4.644;2023-11-18T08:58:11;101905.06;;;5.60;100.00
38630;BME280;24384;51.988;4.644;2023-11-18T09:00:55;101897.22;;;5.62;100.00
38630;BME280;24384;51.988;4.644;2023-11-18T09:03:24;101902.47;;;5.60;100.00
38630;BME280;24384;51.988;4.644;2023-11-18T09:05:59;101889.38;;;5.57;100.00
38630;BME280;24384;51.988;4.644;2023-11-18T09:08:33;101884.97;;;5.54;100.00
38630;BME280;24384;51.988;4.644;2023-11-18T09:11:07;101877.16;;;5.59;100.00
38630;BME280;24384;51.988;4.644;2023-11-18T09:13:33;101876.28;;;5.60;100.00
38630;BME280;24384;51.988;4.644;2023-11-18T09:16:08;101855.38;;;5.63;100.00
38630;BME280;24384;51.988;4.644;2023-11-18T09:18:35;101837.94;;;5.68;100.00
38630;BME280;24384;51.988;4.644;2023-11-18T09:21:02;101837.94;;;5.73;100.00
38630;BME280;24384;51.988;4.644;2023-11-18T09:23:29;101834.47;;;5.76;100.00
38630;BME280;24384;51.988;4.644;2023-11-18T09:25:57;101838.84;;;5.80;100.00
38630;BME280;24384;51.988;4.644;2023-11-18T09:28:23;101835.34;;;5.85;100.00
38630;BME280;24384;51.988;4.644;2023-11-18T09:30:54;101844.97;;;5.89;100.00
38630;BME280;24384;51.988;4.644;2023-11-18T09:33:23;101845.84;;;5.93;100.00
38630;BME280;24384;51.988;4.644;2023-11-18T09:36:03;101838.03;;;5.99;100.00
38630;BME280;24384;51.988;4.644;2023-11-18T09:38:30;101816.22;;;6.03;100.00
38630;BME280;24384;51.988;4.644;2023-11-18T09:40:59;101827.56;;;6.02;100.00
38630;BME280;24384;51.988;4.644;2023-11-18T09:43:32;101831.09;;;6.04;100.00
38630;BME280;24384;51.988;4.644;2023-11-18T09:46:08;101824.09;;;6.03;100.00
38630;BME280;24384;51.988;4.644;2023-11-18T09:48:48;101831.94;;;6.05;100.00
38630;BME280;24384;51.988;4.644;2023-11-18T09:51:23;101822.34;;;6.08;100.00
38630;BME280;24384;51.988;4.644;2023-11-18T09:53:53;101818.84;;;6.08;100.00
38630;BME280;24384;51.988;4.644;2023-11-18T09:56:41;101811.00;;;6.16;100.00
38630;BME280;24384;51.988;4.644;2023-11-18T09:59:23;101804.00;;;6.13;100.00
38630;BME280;24384;51.988;4.644;2023-11-18T10:01:53;101790.91;;;6.13;100.00
38630;BME280;24384;51.988;4.644;2023-11-18T10:04:23;101785.69;;;6.19;100.00
38630;BME280;24384;51.988;4.644;2023-11-18T10:06:53;101797.03;;;6.17;100.00
38630;BME280;24384;51.988;4.644;2023-11-18T10:09:19;101804.00;;;6.24;100.00
38630;BME280;24384;51.988;4.644;2023-11-18T10:11:50;101801.41;;;6.18;100.00
38630;BME280;24384;51.988;4.644;2023-11-18T10:14:16;101804.91;;;6.18;100.00
38630;BME280;24384;51.988;4.644;2023-11-18T10:16:43;101809.25;;;6.21;100.00
38630;BME280;24384;51.988;4.644;2023-11-18T10:19:12;101814.50;;;6.21;100.00
38630;BME280;24384;51.988;4.644;2023-11-18T10:21:38;101805.78;;;6.22;100.00
38630;BME280;24384;51.988;4.644;2023-11-18T10:24:07;101796.16;;;6.22;100.00
38630;BME280;24384;51.988;4.644;2023-11-18T10:26:45;101785.69;;;6.27;100.00
38630;BME280;24384;51.988;4.644;2023-11-18T10:29:11;101774.34;;;6.26;100.00
38630;BME280;24384;51.988;4.644;2023-11-18T10:31:39;101749.88;;;6.32;100.00
38630;BME280;24384;51.988;4.644;2023-11-18T10:34:14;101752.50;;;6.32;100.00
38630;BME280;24384;51.988;4.644;2023-11-18T10:36:41;101754.22;;;6.36;100.00
38630;BME280;24384;51.988;4.644;2023-11-18T10:39:10;101763.84;;;6.34;100.00
38630;BME280;24384;51.988;4.644;2023-11-18T10:41:42;101757.75;;;6.34;100.00
38630;BME280;24384;51.988;4.644;2023-11-18T10:44:08;101768.22;;;6.34;100.00
38630;BME280;24384;51.988;4.644;2023-11-18T10:46:39;101759.47;;;6.32;100.00
38630;BME280;24384;51.988;4.644;2023-11-18T10:49:05;101761.22;;;6.31;100.00
38630;BME280;24384;51.988;4.644;2023-11-18T10:51:35;101747.28;;;6.32;100.00
38630;BME280;24384;51.988;4.644;2023-11-18T10:54:00;101738.50;;;6.33;100.00
38630;BME280;24384;51.988;4.644;2023-11-18T10:56:29;101725.41;;;6.30;100.00
38630;BME280;24384;51.988;4.644;2023-11-18T10:58:59;101700.97;;;6.31;100.00
38630;BME280;24384;51.988;4.644;2023-11-18T11:01:32;101675.63;;;6.35;100.00
38630;BME280;24384;51.988;4.644;2023-11-18T11:03:58;101649.41;;;6.38;100.00
38630;BME280;24384;51.988;4.644;2023-11-18T11:06:24;101624.97;;;6.40;100.00
38630;BME280;24384;51.988;4.644;2023-11-18T11:08:53;101624.94;;;6.45;100.00
38630;BME280;24384;51.988;4.644;2023-11-18T11:11:22;101610.97;;;6.48;100.00
38630;BME280;24384;51.988;4.644;2023-11-18T11:14:00;101606.59;;;6.47;100.00
38630;BME280;24384;51.988;4.644;2023-11-18T11:16:41;101610.09;;;6.45;100.00
38630;BME280;24384;51.988;4.644;2023-11-18T11:19:47;101603.13;;;6.49;100.00
38630;BME280;24384;51.988;4.644;2023-11-18T11:22:18;101601.34;;;6.53;100.00
38630;BME280;24384;51.988;4.644;2023-11-18T11:24:54;101599.56;;;6.58;100.00
38630;BME280;24384;51.988;4.644;2023-11-18T11:27:28;101587.34;;;6.60;100.00
38630;BME280;24384;51.988;4.644;2023-11-18T11:30:11;101583.78;;;6.70;100.00
38630;BME280;24384;51.988;4.644;2023-11-18T11:32:50;101551.47;;;6.68;100.00
38630;BME280;24384;51.988;4.644;2023-11-18T11:35:30;101532.22;;;6.75;100.00
38630;BME280;24384;51.988;4.644;2023-11-18T11:37:56;101526.06;;;6.78;100.00
38630;BME280;24384;51.988;4.644;2023-11-18T11:40:33;101497.19;;;6.82;100.00
38630;BME280;24384;51.988;4.644;2023-11-18T11:43:00;101493.69;;;6.82;100.00
38630;BME280;24384;51.988;4.644;2023-11-18T11:45:31;101473.59;;;6.82;100.00
38630;BME280;24384;51.988;4.644;2023-11-18T11:48:00;101486.72;;;6.78;100.00
38630;BME280;24384;51.988;4.644;2023-11-18T11:51:37;101477.94;;;6.85;100.00
38630;BME280;24384;51.988;4.644;2023-11-18T11:54:27;101496.34;;;6.80;100.00
38630;BME280;24384;51.988;4.644;2023-11-18T11:56:56;101491.91;;;6.86;100.00
38630;BME280;24384;51.988;4.644;2023-11-18T11:59:55;101490.13;;;6.92;100.00
38630;BME280;24384;51.988;4.644;2023-11-18T12:02:27;101463.00;;;6.95;100.00
38630;BME280;24384;51.988;4.644;2023-11-18T12:04:57;101463.00;;;6.93;100.00
38630;BME280;24384;51.988;4.644;2023-11-18T12:07:27;101479.66;;;6.92;100.00
38630;BME280;24384;51.988;4.644;2023-11-18T12:09:56;101469.16;;;6.91;100.00
38630;BME280;24384;51.988;4.644;2023-11-18T12:12:24;101450.75;;;7.00;100.00
38630;BME280;24384;51.988;4.644;2023-11-18T12:14:54;101455.06;;;7.03;100.00
38630;BME280;24384;51.988;4.644;2023-11-18T12:17:23;101453.31;;;7.08;100.00
38630;BME280;24384;51.988;4.644;2023-11-18T12:19:49;101454.22;;;7.02;100.00
38630;BME280;24384;51.988;4.644;2023-11-18T12:22:25;101476.06;;;7.03;100.00
38630;BME280;24384;51.988;4.644;2023-11-18T12:27:42;101457.66;;;7.06;100.00
38630;BME280;24384;51.988;4.644;2023-11-18T12:33:04;101424.47;;;7.05;100.00
38630;BME280;24384;51.988;4.644;2023-11-18T12:41:38;101400.84;;;7.06;100.00
38630;BME280;24384;51.988;4.644;2023-11-18T12:46:51;101373.69;;;7.12;100.00
38630;BME280;24384;51.988;4.644;2023-11-18T12:49:21;101381.56;;;7.09;100.00
38630;BME280;24384;51.988;4.644;2023-11-18T12:51:53;101377.22;;;7.09;100.00
38630;BME280;24384;51.988;4.644;2023-11-18T12:54:21;101376.34;;;7.06;100.00
38630;BME280;24384;51.988;4.644;2023-11-18T12:56:50;101365.88;;;7.04;100.00
38630;BME280;24384;51.988;4.644;2023-11-18T12:59:18;101361.59;;;6.98;100.00
38630;BME280;24384;51.988;4.644;2023-11-18T13:01:46;101329.13;;;7.07;100.00
38630;BME280;24384;51.988;4.644;2023-11-18T13:04:17;101327.38;;;7.11;100.00
38630;BME280;24384;51.988;4.644;2023-11-18T13:06:45;101315.97;;;7.10;100.00
38630;BME280;24384;51.988;4.644;2023-11-18T13:09:10;101296.72;;;7.13;100.00
38630;BME280;24384;51.988;4.644;2023-11-18T13:11:51;101304.53;;;7.17;100.00
38630;BME280;24384;51.988;4.644;2023-11-18T13:14:16;101286.16;;;7.19;100.00